sensor_id;sensor_type;location;lat;lon;timestamp;pressure;altitude;pressure_sealevel;temperature
20730;BMP280;10526;50.850;12.928;2023-07-31T00:01:27;97723.31;;;14.40
20730;BMP280;10526;50.850;12.928;2023-07-31T00:05:49;97720.94;;;14.42
20730;BMP280;10526;50.850;12.928;2023-07-31T00:10:11;97723.59;;;14.42
20730;BMP280;10526;50.850;12.928;2023-07-31T00:14:33;97714.75;;;14.45
20730;BMP280;10526;50.850;12.928;2023-07-31T00:18:55;97716.13;;;14.50
20730;BMP280;10526;50.850;12.928;2023-07-31T00:23:17;97706.38;;;14.56
20730;BMP280;10526;50.850;12.928;2023-07-31T00:27:39;97704.47;;;14.56
20730;BMP280;10526;50.850;12.928;2023-07-31T00:32:01;97702.41;;;14.60
20730;BMP280;10526;50.850;12.928;2023-07-31T00:36:23;97699.53;;;14.68
20730;BMP280;10526;50.850;12.928;2023-07-31T00:40:45;97695.16;;;14.74
20730;BMP280;10526;50.850;12.928;2023-07-31T00:45:07;97690.72;;;14.80
20730;BMP280;10526;50.850;12.928;2023-07-31T00:49:29;97684.97;;;14.81
20730;BMP280;10526;50.850;12.928;2023-07-31T00:53:52;97687.19;;;14.83
20730;BMP280;10526;50.850;12.928;2023-07-31T00:58:16;97677.53;;;14.85
20730;BMP280;10526;50.850;12.928;2023-07-31T01:02:38;97679.13;;;14.96
20730;BMP280;10526;50.850;12.928;2023-07-31T01:11:56;97674.16;;;15.19
20730;BMP280;10526;50.850;12.928;2023-07-31T01:16:18;97670.28;;;15.20
20730;BMP280;10526;50.850;12.928;2023-07-31T01:20:42;97669.50;;;15.33
20730;BMP280;10526;50.850;12.928;2023-07-31T01:30:27;97665.09;;;15.61
20730;BMP280;10526;50.850;12.928;2023-07-31T01:34:32;97658.59;;;15.71
20730;BMP280;10526;50.850;12.928;2023-07-31T01:39:01;97652.22;;;15.77
20730;BMP280;10526;50.850;12.928;2023-07-31T01:43:24;97655.53;;;15.81
20730;BMP280;10526;50.850;12.928;2023-07-31T01:47:46;97661.81;;;15.88
20730;BMP280;10526;50.850;12.928;2023-07-31T01:52:08;97664.69;;;15.93
20730;BMP280;10526;50.850;12.928;2023-07-31T01:56:31;97669.94;;;15.97
20730;BMP280;10526;50.850;12.928;2023-07-31T02:00:53;97667.41;;;16.02
20730;BMP280;10526;50.850;12.928;2023-07-31T02:05:15;97663.41;;;16.07
20730;BMP280;10526;50.850;12.928;2023-07-31T02:09:37;97660.09;;;16.03
20730;BMP280;10526;50.850;12.928;2023-07-31T02:13:59;97663.72;;;16.00
20730;BMP280;10526;50.850;12.928;2023-07-31T02:18:21;97663.97;;;15.93
20730;BMP280;10526;50.850;12.928;2023-07-31T02:22:44;97660.47;;;15.83
20730;BMP280;10526;50.850;12.928;2023-07-31T02:27:06;97663.63;;;15.69
20730;BMP280;10526;50.850;12.928;2023-07-31T02:31:28;97657.59;;;15.56
20730;BMP280;10526;50.850;12.928;2023-07-31T02:35:50;97658.69;;;15.45
20730;BMP280;10526;50.850;12.928;2023-07-31T02:40:12;97658.19;;;15.38
20730;BMP280;10526;50.850;12.928;2023-07-31T02:44:34;97647.38;;;15.29
20730;BMP280;10526;50.850;12.928;2023-07-31T02:48:56;97649.22;;;15.19
20730;BMP280;10526;50.850;12.928;2023-07-31T02:53:18;97644.38;;;15.05
20730;BMP280;10526;50.850;12.928;2023-07-31T02:57:40;97640.41;;;14.97
20730;BMP280;10526;50.850;12.928;2023-07-31T03:02:02;97637.50;;;14.91
20730;BMP280;10526;50.850;12.928;2023-07-31T03:06:24;97636.91;;;14.87
20730;BMP280;10526;50.850;12.928;2023-07-31T03:10:46;97640.00;;;14.85
20730;BMP280;10526;50.850;12.928;2023-07-31T03:15:08;97640.13;;;14.82
20730;BMP280;10526;50.850;12.928;2023-07-31T03:19:32;97639.47;;;14.78
20730;BMP280;10526;50.850;12.928;2023-07-31T03:23:54;97637.94;;;14.77
20730;BMP280;10526;50.850;12.928;2023-07-31T03:28:16;97635.81;;;14.72
20730;BMP280;10526;50.850;12.928;2023-07-31T03:32:38;97627.50;;;14.70
20730;BMP280;10526;50.850;12.928;2023-07-31T03:37:00;97620.72;;;14.65
20730;BMP280;10526;50.850;12.928;2023-07-31T03:41:22;97629.31;;;14.60
20730;BMP280;10526;50.850;12.928;2023-07-31T03:45:44;97618.28;;;14.58
20730;BMP280;10526;50.850;12.928;2023-07-31T03:50:06;97614.19;;;14.53
20730;BMP280;10526;50.850;12.928;2023-07-31T03:54:28;97622.97;;;14.67
20730;BMP280;10526;50.850;12.928;2023-07-31T03:58:50;97610.88;;;14.75
20730;BMP280;10526;50.850;12.928;2023-07-31T04:03:12;97617.16;;;14.81
20730;BMP280;10526;50.850;12.928;2023-07-31T04:07:34;97617.03;;;14.84
20730;BMP280;10526;50.850;12.928;2023-07-31T04:11:56;97613.31;;;14.82
20730;BMP280;10526;50.850;12.928;2023-07-31T04:16:18;97607.00;;;14.76
20730;BMP280;10526;50.850;12.928;2023-07-31T04:20:40;97601.31;;;14.74
20730;BMP280;10526;50.850;12.928;2023-07-31T04:25:03;97593.28;;;14.74
20730;BMP280;10526;50.850;12.928;2023-07-31T04:29:25;97602.38;;;14.76
20730;BMP280;10526;50.850;12.928;2023-07-31T04:33:47;97596.38;;;14.85
20730;BMP280;10526;50.850;12.928;2023-07-31T04:38:09;97588.94;;;14.89
20730;BMP280;10526;50.850;12.928;2023-07-31T04:42:32;97591.25;;;15.00
20730;BMP280;10526;50.850;12.928;2023-07-31T04:46:54;97580.28;;;15.07
20730;BMP280;10526;50.850;12.928;2023-07-31T04:51:16;97579.06;;;15.20
20730;BMP280;10526;50.850;12.928;2023-07-31T04:55:38;97575.97;;;15.44
20730;BMP280;10526;50.850;12.928;2023-07-31T05:00:00;97573.72;;;15.73
20730;BMP280;10526;50.850;12.928;2023-07-31T05:04:22;97570.34;;;15.82
20730;BMP280;10526;50.850;12.928;2023-07-31T05:08:44;97566.94;;;15.91
20730;BMP280;10526;50.850;12.928;2023-07-31T05:13:06;97572.06;;;16.07
20730;BMP280;10526;50.850;12.928;2023-07-31T05:17:28;97569.13;;;16.14
20730;BMP280;10526;50.850;12.928;2023-07-31T05:21:50;97562.84;;;16.17
20730;BMP280;10526;50.850;12.928;2023-07-31T05:26:12;97559.97;;;16.02
20730;BMP280;10526;50.850;12.928;2023-07-31T05:30:34;97565.59;;;15.95
20730;BMP280;10526;50.850;12.928;2023-07-31T05:34:56;97568.63;;;15.97
20730;BMP280;10526;50.850;12.928;2023-07-31T05:39:18;97565.94;;;16.06
20730;BMP280;10526;50.850;12.928;2023-07-31T05:43:41;97571.94;;;16.10
20730;BMP280;10526;50.850;12.928;2023-07-31T05:48:04;97570.66;;;16.15
20730;BMP280;10526;50.850;12.928;2023-07-31T05:52:26;97565.53;;;16.08
20730;BMP280;10526;50.850;12.928;2023-07-31T05:56:48;97567.63;;;16.13
20730;BMP280;10526;50.850;12.928;2023-07-31T06:01:11;97563.78;;;16.23
20730;BMP280;10526;50.850;12.928;2023-07-31T06:05:33;97560.81;;;16.21
20730;BMP280;10526;50.850;12.928;2023-07-31T06:09:55;97552.84;;;16.18
20730;BMP280;10526;50.850;12.928;2023-07-31T06:14:17;97564.41;;;16.27
20730;BMP280;10526;50.850;12.928;2023-07-31T06:18:39;97564.75;;;16.48
20730;BMP280;10526;50.850;12.928;2023-07-31T06:23:01;97558.78;;;16.71
20730;BMP280;10526;50.850;12.928;2023-07-31T06:27:24;97554.31;;;16.95
20730;BMP280;10526;50.850;12.928;2023-07-31T06:31:46;97545.72;;;17.34
20730;BMP280;10526;50.850;12.928;2023-07-31T06:36:08;97554.31;;;17.56
20730;BMP280;10526;50.850;12.928;2023-07-31T06:40:30;97573.19;;;17.65
20730;BMP280;10526;50.850;12.928;2023-07-31T06:44:52;97559.19;;;17.85
20730;BMP280;10526;50.850;12.928;2023-07-31T06:49:14;97561.25;;;18.23
20730;BMP280;10526;50.850;12.928;2023-07-31T06:53:39;97562.19;;;18.35
20730;BMP280;10526;50.850;12.928;2023-07-31T06:58:01;97566.69;;;18.38
20730;BMP280;10526;50.850;12.928;2023-07-31T07:02:23;97565.00;;;18.64
20730;BMP280;10526;50.850;12.928;2023-07-31T07:06:45;97571.09;;;18.89
20730;BMP280;10526;50.850;12.928;2023-07-31T07:11:07;97556.03;;;19.41
20730;BMP280;10526;50.850;12.928;2023-07-31T07:15:30;97557.22;;;19.90
20730;BMP280;10526;50.850;12.928;2023-07-31T07:19:52;97562.78;;;20.01
20730;BMP280;10526;50.850;12.928;2023-07-31T07:24:14;97563.09;;;19.53
20730;BMP280;10526;50.850;12.928;2023-07-31T07:28:35;97578.78;;;19.34
20730;BMP280;10526;50.850;12.928;2023-07-31T07:32:58;97575.00;;;19.17
20730;BMP280;10526;50.850;12.928;2023-07-31T07:37:21;97564.22;;;19.17
20730;BMP280;10526;50.850;12.928;2023-07-31T07:41:43;97566.28;;;19.22
20730;BMP280;10526;50.850;12.928;2023-07-31T07:46:05;97564.69;;;19.45
20730;BMP280;10526;50.850;12.928;2023-07-31T07:50:27;97565.88;;;19.59
20730;BMP280;10526;50.850;12.928;2023-07-31T07:54:49;97562.56;;;19.84
20730;BMP280;10526;50.850;12.928;2023-07-31T07:59:11;97566.41;;;19.63
20730;BMP280;10526;50.850;12.928;2023-07-31T08:03:33;97571.94;;;19.54
20730;BMP280;10526;50.850;12.928;2023-07-31T08:07:55;97582.88;;;19.30
20730;BMP280;10526;50.850;12.928;2023-07-31T08:12:17;97559.50;;;19.12
20730;BMP280;10526;50.850;12.928;2023-07-31T08:16:39;97575.25;;;18.90
20730;BMP280;10526;50.850;12.928;2023-07-31T08:21:03;97566.75;;;18.67
20730;BMP280;10526;50.850;12.928;2023-07-31T08:25:25;97571.75;;;18.60
20730;BMP280;10526;50.850;12.928;2023-07-31T08:29:47;97559.94;;;18.57
20730;BMP280;10526;50.850;12.928;2023-07-31T08:34:08;97576.03;;;18.51
20730;BMP280;10526;50.850;12.928;2023-07-31T08:38:31;97584.97;;;18.58
20730;BMP280;10526;50.850;12.928;2023-07-31T08:42:55;97577.06;;;18.54
20730;BMP280;10526;50.850;12.928;2023-07-31T08:47:24;97572.88;;;18.53
20730;BMP280;10526;50.850;12.928;2023-07-31T08:51:46;97571.59;;;18.63
20730;BMP280;10526;50.850;12.928;2023-07-31T08:56:13;97567.72;;;18.79
20730;BMP280;10526;50.850;12.928;2023-07-31T09:00:36;97561.63;;;18.93
20730;BMP280;10526;50.850;12.928;2023-07-31T09:04:58;97558.63;;;19.06
20730;BMP280;10526;50.850;12.928;2023-07-31T09:09:21;97566.00;;;19.20
20730;BMP280;10526;50.850;12.928;2023-07-31T09:13:43;97557.53;;;19.42
20730;BMP280;10526;50.850;12.928;2023-07-31T09:18:08;97555.41;;;19.66
20730;BMP280;10526;50.850;12.928;2023-07-31T09:22:34;97558.06;;;19.61
20730;BMP280;10526;50.850;12.928;2023-07-31T09:27:00;97567.94;;;19.64
20730;BMP280;10526;50.850;12.928;2023-07-31T09:31:42;97547.06;;;19.50
20730;BMP280;10526;50.850;12.928;2023-07-31T09:36:04;97556.31;;;19.43
20730;BMP280;10526;50.850;12.928;2023-07-31T09:40:35;97549.66;;;19.59
20730;BMP280;10526;50.850;12.928;2023-07-31T09:45:08;97538.44;;;19.81
20730;BMP280;10526;50.850;12.928;2023-07-31T09:49:30;97539.63;;;19.94
20730;BMP280;10526;50.850;12.928;2023-07-31T09:53:52;97537.47;;;19.98
20730;BMP280;10526;50.850;12.928;2023-07-31T09:58:15;97540.56;;;20.12
20730;BMP280;10526;50.850;12.928;2023-07-31T10:02:38;97521.59;;;20.52
20730;BMP280;10526;50.850;12.928;2023-07-31T10:07:02;97515.31;;;21.24
20730;BMP280;10526;50.850;12.928;2023-07-31T10:11:26;97509.03;;;21.75
20730;BMP280;10526;50.850;12.928;2023-07-31T10:15:49;97507.75;;;22.41
20730;BMP280;10526;50.850;12.928;2023-07-31T10:20:11;97511.94;;;22.42
20730;BMP280;10526;50.850;12.928;2023-07-31T10:24:34;97502.06;;;22.34
20730;BMP280;10526;50.850;12.928;2023-07-31T10:28:58;97521.25;;;22.13
20730;BMP280;10526;50.850;12.928;2023-07-31T10:33:20;97508.59;;;21.93
20730;BMP280;10526;50.850;12.928;2023-07-31T10:37:43;97514.44;;;21.75
20730;BMP280;10526;50.850;12.928;2023-07-31T10:42:12;97513.66;;;21.69
20730;BMP280;10526;50.850;12.928;2023-07-31T10:46:34;97514.88;;;21.62
20730;BMP280;10526;50.850;12.928;2023-07-31T10:50:58;97503.22;;;21.99
20730;BMP280;10526;50.850;12.928;2023-07-31T10:55:26;97500.41;;;22.86
20730;BMP280;10526;50.850;12.928;2023-07-31T10:59:49;97489.50;;;23.94
20730;BMP280;10526;50.850;12.928;2023-07-31T11:04:11;97491.78;;;24.62
20730;BMP280;10526;50.850;12.928;2023-07-31T11:08:41;97476.16;;;25.41
20730;BMP280;10526;50.850;12.928;2023-07-31T11:13:07;97484.28;;;24.73
20730;BMP280;10526;50.850;12.928;2023-07-31T11:17:29;97484.19;;;25.09
20730;BMP280;10526;50.850;12.928;2023-07-31T11:21:52;97477.00;;;25.11
20730;BMP280;10526;50.850;12.928;2023-07-31T11:26:18;97469.94;;;24.37
20730;BMP280;10526;50.850;12.928;2023-07-31T11:30:42;97468.25;;;23.93
20730;BMP280;10526;50.850;12.928;2023-07-31T11:35:04;97458.63;;;23.92
20730;BMP280;10526;50.850;12.928;2023-07-31T11:39:27;97454.59;;;24.94
20730;BMP280;10526;50.850;12.928;2023-07-31T11:43:49;97451.94;;;25.56
20730;BMP280;10526;50.850;12.928;2023-07-31T11:48:33;97442.13;;;25.66
20730;BMP280;10526;50.850;12.928;2023-07-31T11:53:00;97450.03;;;25.08
20730;BMP280;10526;50.850;12.928;2023-07-31T11:57:23;97436.13;;;25.06
20730;BMP280;10526;50.850;12.928;2023-07-31T12:01:45;97443.34;;;24.84
20730;BMP280;10526;50.850;12.928;2023-07-31T12:06:08;97440.91;;;24.75
20730;BMP280;10526;50.850;12.928;2023-07-31T12:10:32;97428.09;;;24.70
20730;BMP280;10526;50.850;12.928;2023-07-31T12:14:55;97418.13;;;25.21
20730;BMP280;10526;50.850;12.928;2023-07-31T12:19:19;97416.25;;;25.73
20730;BMP280;10526;50.850;12.928;2023-07-31T12:23:41;97400.59;;;25.92
20730;BMP280;10526;50.850;12.928;2023-07-31T12:28:05;97396.47;;;26.17
20730;BMP280;10526;50.850;12.928;2023-07-31T12:32:30;97418.44;;;25.93
20730;BMP280;10526;50.850;12.928;2023-07-31T12:36:53;97396.88;;;25.57
20730;BMP280;10526;50.850;12.928;2023-07-31T12:41:16;97406.03;;;24.98
20730;BMP280;10526;50.850;12.928;2023-07-31T12:45:38;97381.91;;;24.83
20730;BMP280;10526;50.850;12.928;2023-07-31T12:50:00;97381.72;;;24.51
20730;BMP280;10526;50.850;12.928;2023-07-31T12:54:22;97365.88;;;24.80
20730;BMP280;10526;50.850;12.928;2023-07-31T12:58:44;97363.59;;;25.46
20730;BMP280;10526;50.850;12.928;2023-07-31T13:03:06;97368.91;;;25.70
20730;BMP280;10526;50.850;12.928;2023-07-31T13:07:28;97375.06;;;25.39
20730;BMP280;10526;50.850;12.928;2023-07-31T13:11:50;97364.88;;;25.02
20730;BMP280;10526;50.850;12.928;2023-07-31T13:16:11;97358.69;;;25.20
20730;BMP280;10526;50.850;12.928;2023-07-31T13:20:33;97355.53;;;24.73
20730;BMP280;10526;50.850;12.928;2023-07-31T13:24:56;97343.91;;;25.15
20730;BMP280;10526;50.850;12.928;2023-07-31T13:29:18;97334.38;;;25.03
20730;BMP280;10526;50.850;12.928;2023-07-31T13:33:39;97327.91;;;25.25
20730;BMP280;10526;50.850;12.928;2023-07-31T13:38:04;97324.81;;;25.53
20730;BMP280;10526;50.850;12.928;2023-07-31T13:42:27;97331.91;;;25.43
20730;BMP280;10526;50.850;12.928;2023-07-31T13:46:50;97316.31;;;24.81
20730;BMP280;10526;50.850;12.928;2023-07-31T13:51:13;97307.72;;;23.99
20730;BMP280;10526;50.850;12.928;2023-07-31T13:55:35;97314.47;;;23.86
20730;BMP280;10526;50.850;12.928;2023-07-31T13:59:57;97305.94;;;23.71
20730;BMP280;10526;50.850;12.928;2023-07-31T14:04:19;97312.78;;;23.83
20730;BMP280;10526;50.850;12.928;2023-07-31T14:08:41;97322.00;;;24.05
20730;BMP280;10526;50.850;12.928;2023-07-31T14:13:03;97327.97;;;23.68
20730;BMP280;10526;50.850;12.928;2023-07-31T14:17:25;97319.66;;;23.49
20730;BMP280;10526;50.850;12.928;2023-07-31T14:21:47;97307.72;;;23.63
20730;BMP280;10526;50.850;12.928;2023-07-31T14:26:26;97306.03;;;23.96
20730;BMP280;10526;50.850;12.928;2023-07-31T14:30:48;97301.97;;;24.08
20730;BMP280;10526;50.850;12.928;2023-07-31T14:35:10;97308.03;;;23.89
20730;BMP280;10526;50.850;12.928;2023-07-31T14:39:32;97296.94;;;23.87
20730;BMP280;10526;50.850;12.928;2023-07-31T14:43:54;97287.03;;;24.20
20730;BMP280;10526;50.850;12.928;2023-07-31T14:48:16;97306.41;;;24.35
20730;BMP280;10526;50.850;12.928;2023-07-31T14:52:38;97300.38;;;24.42
20730;BMP280;10526;50.850;12.928;2023-07-31T14:57:00;97314.22;;;24.20
20730;BMP280;10526;50.850;12.928;2023-07-31T15:01:23;97320.81;;;24.00
20730;BMP280;10526;50.850;12.928;2023-07-31T15:05:45;97308.53;;;23.58
20730;BMP280;10526;50.850;12.928;2023-07-31T15:10:07;97316.25;;;23.37
20730;BMP280;10526;50.850;12.928;2023-07-31T15:14:30;97308.16;;;23.32
20730;BMP280;10526;50.850;12.928;2023-07-31T15:18:53;97317.47;;;22.89
20730;BMP280;10526;50.850;12.928;2023-07-31T15:23:15;97311.38;;;22.55
20730;BMP280;10526;50.850;12.928;2023-07-31T15:27:37;97307.22;;;22.10
20730;BMP280;10526;50.850;12.928;2023-07-31T15:31:59;97295.84;;;21.89
20730;BMP280;10526;50.850;12.928;2023-07-31T15:36:21;97288.25;;;21.82
20730;BMP280;10526;50.850;12.928;2023-07-31T15:40:43;97282.06;;;21.70
20730;BMP280;10526;50.850;12.928;2023-07-31T15:45:08;97283.31;;;21.75
20730;BMP280;10526;50.850;12.928;2023-07-31T15:49:30;97275.66;;;21.84
20730;BMP280;10526;50.850;12.928;2023-07-31T15:53:53;97270.00;;;21.99
20730;BMP280;10526;50.850;12.928;2023-07-31T15:58:15;97269.22;;;22.15
20730;BMP280;10526;50.850;12.928;2023-07-31T16:02:37;97266.78;;;22.12
20730;BMP280;10526;50.850;12.928;2023-07-31T16:06:59;97257.16;;;21.99
20730;BMP280;10526;50.850;12.928;2023-07-31T16:11:23;97258.19;;;21.85
20730;BMP280;10526;50.850;12.928;2023-07-31T16:15:45;97258.19;;;21.85
20730;BMP280;10526;50.850;12.928;2023-07-31T16:20:08;97247.09;;;21.94
20730;BMP280;10526;50.850;12.928;2023-07-31T16:24:30;97235.97;;;21.92
20730;BMP280;10526;50.850;12.928;2023-07-31T16:28:52;97232.56;;;21.86
20730;BMP280;10526;50.850;12.928;2023-07-31T16:33:14;97240.41;;;21.84
20730;BMP280;10526;50.850;12.928;2023-07-31T16:37:37;97231.81;;;21.75
20730;BMP280;10526;50.850;12.928;2023-07-31T16:41:59;97238.44;;;21.74
20730;BMP280;10526;50.850;12.928;2023-07-31T16:46:21;97230.06;;;21.60
20730;BMP280;10526;50.850;12.928;2023-07-31T16:50:43;97228.06;;;21.61
20730;BMP280;10526;50.850;12.928;2023-07-31T16:55:05;97227.59;;;21.57
20730;BMP280;10526;50.850;12.928;2023-07-31T16:59:28;97224.91;;;21.51
20730;BMP280;10526;50.850;12.928;2023-07-31T17:03:49;97227.09;;;21.47
20730;BMP280;10526;50.850;12.928;2023-07-31T17:08:11;97221.19;;;21.43
20730;BMP280;10526;50.850;12.928;2023-07-31T17:12:35;97216.75;;;21.46
20730;BMP280;10526;50.850;12.928;2023-07-31T17:16:59;97205.44;;;21.47
20730;BMP280;10526;50.850;12.928;2023-07-31T17:21:21;97202.47;;;21.51
20730;BMP280;10526;50.850;12.928;2023-07-31T17:25:43;97198.03;;;21.48
20730;BMP280;10526;50.850;12.928;2023-07-31T17:30:06;97194.31;;;21.45
20730;BMP280;10526;50.850;12.928;2023-07-31T17:34:28;97197.03;;;21.40
20730;BMP280;10526;50.850;12.928;2023-07-31T17:38:50;97198.75;;;21.43
20730;BMP280;10526;50.850;12.928;2023-07-31T17:43:12;97194.31;;;21.28
20730;BMP280;10526;50.850;12.928;2023-07-31T17:47:34;97186.16;;;21.23
20730;BMP280;10526;50.850;12.928;2023-07-31T17:51:56;97192.31;;;21.18
20730;BMP280;10526;50.850;12.928;2023-07-31T17:56:19;97190.34;;;21.18
20730;BMP280;10526;50.850;12.928;2023-07-31T18:00:41;97195.75;;;21.18
20730;BMP280;10526;50.850;12.928;2023-07-31T18:05:07;97202.41;;;21.17
20730;BMP280;10526;50.850;12.928;2023-07-31T18:09:29;97201.16;;;21.13
20730;BMP280;10526;50.850;12.928;2023-07-31T18:13:51;97190.81;;;21.06
20730;BMP280;10526;50.850;12.928;2023-07-31T18:18:13;97192.75;;;20.99
20730;BMP280;10526;50.850;12.928;2023-07-31T18:22:37;97188.28;;;20.91
20730;BMP280;10526;50.850;12.928;2023-07-31T18:26:59;97197.38;;;20.88
20730;BMP280;10526;50.850;12.928;2023-07-31T18:31:21;97192.47;;;20.86
20730;BMP280;10526;50.850;12.928;2023-07-31T18:35:44;97182.84;;;20.80
20730;BMP280;10526;50.850;12.928;2023-07-31T18:40:07;97186.56;;;20.88
20730;BMP280;10526;50.850;12.928;2023-07-31T18:44:29;97167.53;;;20.60
20730;BMP280;10526;50.850;12.928;2023-07-31T18:48:52;97174.78;;;20.37
20730;BMP280;10526;50.850;12.928;2023-07-31T18:53:14;97172.97;;;20.23
20730;BMP280;10526;50.850;12.928;2023-07-31T18:57:37;97156.44;;;20.10
20730;BMP280;10526;50.850;12.928;2023-07-31T19:01:59;97156.88;;;20.02
20730;BMP280;10526;50.850;12.928;2023-07-31T19:06:21;97160.31;;;20.03
20730;BMP280;10526;50.850;12.928;2023-07-31T19:10:44;97156.91;;;20.08
20730;BMP280;10526;50.850;12.928;2023-07-31T19:15:06;97156.97;;;20.14
20730;BMP280;10526;50.850;12.928;2023-07-31T19:19:28;97149.06;;;20.16
20730;BMP280;10526;50.850;12.928;2023-07-31T19:23:50;97141.19;;;20.12
20730;BMP280;10526;50.850;12.928;2023-07-31T19:28:13;97141.41;;;20.08
20730;BMP280;10526;50.850;12.928;2023-07-31T19:32:35;97131.34;;;20.09
20730;BMP280;10526;50.850;12.928;2023-07-31T19:36:57;97137.25;;;20.07
20730;BMP280;10526;50.850;12.928;2023-07-31T19:41:19;97123.72;;;20.07
20730;BMP280;10526;50.850;12.928;2023-07-31T19:45:41;97118.06;;;20.05
20730;BMP280;10526;50.850;12.928;2023-07-31T19:50:03;97116.31;;;20.02
20730;BMP280;10526;50.850;12.928;2023-07-31T19:54:25;97100.78;;;19.97
20730;BMP280;10526;50.850;12.928;2023-07-31T19:58:47;97096.09;;;19.92
20730;BMP280;10526;50.850;12.928;2023-07-31T20:03:09;97108.16;;;19.91
20730;BMP280;10526;50.850;12.928;2023-07-31T20:07:32;97098.28;;;19.88
20730;BMP280;10526;50.850;12.928;2023-07-31T20:11:54;97098.28;;;19.83
20730;BMP280;10526;50.850;12.928;2023-07-31T20:16:17;97096.78;;;19.82
20730;BMP280;10526;50.850;12.928;2023-07-31T20:20:40;97088.66;;;19.82
20730;BMP280;10526;50.850;12.928;2023-07-31T20:25:02;97079.59;;;19.79
20730;BMP280;10526;50.850;12.928;2023-07-31T20:29:24;97075.63;;;19.74
20730;BMP280;10526;50.850;12.928;2023-07-31T20:33:46;97082.72;;;19.72
20730;BMP280;10526;50.850;12.928;2023-07-31T20:38:08;97075.59;;;19.69
20730;BMP280;10526;50.850;12.928;2023-07-31T20:42:30;97068.97;;;19.70
20730;BMP280;10526;50.850;12.928;2023-07-31T20:46:52;97063.56;;;19.70
20730;BMP280;10526;50.850;12.928;2023-07-31T20:51:15;97052.00;;;19.69
20730;BMP280;10526;50.850;12.928;2023-07-31T20:55:40;97054.94;;;19.66
20730;BMP280;10526;50.850;12.928;2023-07-31T21:00:03;97046.84;;;19.66
20730;BMP280;10526;50.850;12.928;2023-07-31T21:04:25;97039.94;;;19.65
20730;BMP280;10526;50.850;12.928;2023-07-31T21:08:47;97042.38;;;19.63
20730;BMP280;10526;50.850;12.928;2023-07-31T21:13:10;97025.94;;;19.61
20730;BMP280;10526;50.850;12.928;2023-07-31T21:17:31;97025.41;;;19.62
20730;BMP280;10526;50.850;12.928;2023-07-31T21:21:53;97026.38;;;19.59
20730;BMP280;10526;50.850;12.928;2023-07-31T21:26:15;97013.59;;;19.54
20730;BMP280;10526;50.850;12.928;2023-07-31T21:30:38;97016.53;;;19.51
20730;BMP280;10526;50.850;12.928;2023-07-31T21:35:00;97017.22;;;19.45
20730;BMP280;10526;50.850;12.928;2023-07-31T21:39:21;97012.03;;;19.42
20730;BMP280;10526;50.850;12.928;2023-07-31T21:43:43;97004.66;;;19.37
20730;BMP280;10526;50.850;12.928;2023-07-31T21:48:05;97004.38;;;19.29
20730;BMP280;10526;50.850;12.928;2023-07-31T21:52:28;97002.03;;;19.17
20730;BMP280;10526;50.850;12.928;2023-07-31T21:56:50;97002.16;;;19.02
20730;BMP280;10526;50.850;12.928;2023-07-31T22:01:12;97007.72;;;18.93
20730;BMP280;10526;50.850;12.928;2023-07-31T22:05:34;96999.81;;;18.83
20730;BMP280;10526;50.850;12.928;2023-07-31T22:09:56;96991.50;;;18.61
20730;BMP280;10526;50.850;12.928;2023-07-31T22:14:18;96990.84;;;18.46
20730;BMP280;10526;50.850;12.928;2023-07-31T22:18:40;96980.19;;;18.37
20730;BMP280;10526;50.850;12.928;2023-07-31T22:23:02;96980.34;;;18.28
20730;BMP280;10526;50.850;12.928;2023-07-31T22:27:24;96966.28;;;18.18
20730;BMP280;10526;50.850;12.928;2023-07-31T22:31:46;96966.69;;;18.11
20730;BMP280;10526;50.850;12.928;2023-07-31T22:36:08;96965.84;;;18.05
20730;BMP280;10526;50.850;12.928;2023-07-31T22:40:30;96956.69;;;17.97
20730;BMP280;10526;50.850;12.928;2023-07-31T22:44:52;96951.22;;;17.91
20730;BMP280;10526;50.850;12.928;2023-07-31T22:49:14;96932.97;;;17.80
20730;BMP280;10526;50.850;12.928;2023-07-31T22:53:36;96927.00;;;17.71
20730;BMP280;10526;50.850;12.928;2023-07-31T22:57:58;96906.03;;;17.60
20730;BMP280;10526;50.850;12.928;2023-07-31T23:02:20;96909.34;;;17.49
20730;BMP280;10526;50.850;12.928;2023-07-31T23:06:42;96901.91;;;17.44
20730;BMP280;10526;50.850;12.928;2023-07-31T23:11:05;96893.47;;;17.37
20730;BMP280;10526;50.850;12.928;2023-07-31T23:15:27;96884.88;;;17.33
20730;BMP280;10526;50.850;12.928;2023-07-31T23:19:49;96872.34;;;17.29
20730;BMP280;10526;50.850;12.928;2023-07-31T23:24:11;96867.75;;;17.30
20730;BMP280;10526;50.850;12.928;2023-07-31T23:28:33;96860.41;;;17.30
20730;BMP280;10526;50.850;12.928;2023-07-31T23:32:55;96850.63;;;17.33
20730;BMP280;10526;50.850;12.928;2023-07-31T23:37:17;96841.06;;;17.32
20730;BMP280;10526;50.850;12.928;2023-07-31T23:41:39;96834.69;;;17.29
20730;BMP280;10526;50.850;12.928;2023-07-31T23:46:01;96831.94;;;17.24
20730;BMP280;10526;50.850;12.928;2023-07-31T23:50:23;96828.88;;;17.16
20730;BMP280;10526;50.850;12.928;2023-07-31T23:54:45;96819.78;;;17.14
20730;BMP280;10526;50.850;12.928;2023-07-31T23:59:09;96809.41;;;17.07
